createdAt,value
2019-05-17T00:00:41.360Z,54.00
2019-05-17T00:03:12.219Z,54.00
2019-05-17T00:05:43.012Z,54.00
2019-05-17T00:08:13.763Z,54.00
2019-05-17T00:10:46.483Z,53.90
2019-05-17T00:13:17.515Z,53.80
2019-05-17T00:15:48.621Z,53.80
2019-05-17T00:18:19.439Z,53.80
2019-05-17T00:20:50.344Z,53.80
2019-05-17T00:23:21.322Z,53.90
2019-05-17T00:25:52.048Z,53.90
2019-05-17T00:28:22.801Z,54.00
2019-05-17T00:30:53.486Z,54.10
2019-05-17T00:33:24.188Z,54.00
2019-05-17T00:35:56.270Z,54.00
2019-05-17T00:38:27.560Z,54.10
2019-05-17T00:40:58.298Z,54.10
2019-05-17T00:43:29.252Z,54.20
2019-05-17T00:46:00.157Z,54.70
2019-05-17T00:48:30.941Z,54.30
2019-05-17T00:51:02.500Z,54.30
2019-05-17T00:53:33.313Z,54.30
2019-05-17T00:56:06.482Z,54.20
2019-05-17T00:58:36.997Z,54.30
2019-05-17T01:01:08.522Z,54.20
2019-05-17T01:03:39.510Z,54.20
2019-05-17T01:06:10.380Z,54.10
2019-05-17T01:08:41.127Z,54.10
2019-05-17T01:11:11.936Z,54.00
2019-05-17T01:13:43.054Z,53.90
2019-05-17T01:16:13.709Z,53.90
2019-05-17T01:18:44.419Z,53.90
2019-05-17T01:21:16.900Z,54.00
2019-05-17T01:23:47.831Z,53.90
2019-05-17T01:26:18.791Z,53.90
2019-05-17T01:28:49.655Z,53.90
2019-05-17T01:31:20.746Z,54.00
2019-05-17T01:33:51.415Z,54.00
2019-05-17T01:36:22.338Z,54.10
2019-05-17T01:38:53.400Z,54.10
2019-05-17T01:41:26.546Z,54.20
2019-05-17T01:43:57.379Z,54.30
2019-05-17T01:46:28.579Z,54.30
2019-05-17T01:48:59.931Z,54.30
2019-05-17T01:51:30.648Z,54.30
2019-05-17T01:54:02.015Z,54.40
2019-05-17T01:56:33.353Z,54.40
2019-05-17T01:59:06.635Z,54.40
2019-05-17T02:01:37.326Z,54.40
2019-05-17T02:04:08.136Z,54.20
2019-05-17T02:06:39.008Z,54.20
2019-05-17T02:09:09.742Z,54.20
2019-05-17T02:11:40.768Z,54.10
2019-05-17T02:14:11.462Z,54.10
2019-05-17T02:16:42.215Z,54.20
2019-05-17T02:19:12.922Z,54.20
2019-05-17T02:21:43.873Z,54.10
2019-05-17T02:24:16.786Z,53.90
2019-05-17T02:26:47.339Z,54.20
2019-05-17T02:29:18.195Z,54.00
2019-05-17T02:31:52.452Z,54.00
2019-05-17T02:34:23.251Z,54.00
2019-05-17T02:36:53.923Z,54.00
2019-05-17T02:39:24.790Z,54.00
2019-05-17T02:41:55.237Z,54.00
2019-05-17T02:44:26.182Z,54.00
2019-05-17T02:46:56.656Z,54.00
2019-05-17T02:49:27.589Z,54.20
2019-05-17T02:51:58.583Z,54.30
2019-05-17T02:54:32.554Z,54.30
2019-05-17T02:57:03.056Z,54.20
2019-05-17T02:59:34.462Z,54.20
2019-05-17T03:02:05.333Z,54.10
2019-05-17T03:04:37.056Z,54.10
2019-05-17T03:07:07.884Z,54.10
2019-05-17T03:09:38.862Z,54.10
2019-05-17T03:12:12.710Z,54.20
2019-05-17T03:14:43.270Z,54.20
2019-05-17T03:17:15.459Z,54.30
2019-05-17T03:19:46.448Z,54.30
2019-05-17T03:22:17.415Z,54.40
2019-05-17T03:24:48.159Z,54.50
2019-05-17T03:27:19.107Z,54.50
2019-05-17T03:29:53.506Z,54.40
2019-05-17T03:32:26.553Z,54.40
2019-05-17T03:34:56.782Z,54.40
2019-05-17T03:37:33.053Z,54.40
2019-05-17T03:40:02.944Z,54.40
2019-05-17T03:42:33.237Z,54.30
2019-05-17T03:45:04.178Z,54.30
2019-05-17T03:47:34.885Z,54.30
2019-05-17T03:50:05.817Z,54.30
2019-05-17T03:52:36.781Z,54.30
2019-05-17T03:55:08.079Z,54.20
2019-05-17T03:57:39.117Z,54.00
2019-05-17T04:00:13.091Z,54.00
2019-05-17T04:02:44.481Z,53.90
2019-05-17T04:05:15.327Z,53.90
2019-05-17T04:07:45.972Z,54.00
2019-05-17T04:10:17.020Z,54.10
2019-05-17T04:12:47.877Z,54.20
2019-05-17T04:15:18.980Z,54.20
2019-05-17T04:17:52.706Z,54.20
2019-05-17T04:20:22.555Z,54.30
2019-05-17T04:22:53.553Z,54.30
2019-05-17T04:25:24.472Z,54.30
2019-05-17T04:27:55.633Z,54.40
2019-05-17T04:30:26.483Z,54.30
2019-05-17T04:32:57.410Z,54.30
2019-05-17T04:35:28.356Z,54.50
2019-05-17T04:37:59.259Z,54.30
2019-05-17T04:40:33.549Z,54.50
2019-05-17T04:43:03.891Z,54.30
2019-05-17T04:45:36.083Z,54.30
2019-05-17T04:48:07.374Z,54.40
2019-05-17T04:50:38.603Z,54.20
2019-05-17T04:53:12.888Z,54.00
2019-05-17T04:55:43.381Z,54.00
2019-05-17T04:58:14.985Z,53.80
2019-05-17T05:00:45.964Z,53.80
2019-05-17T05:03:17.757Z,53.80
2019-05-17T05:05:48.827Z,53.90
2019-05-17T05:08:22.230Z,53.80
2019-05-17T05:10:53.515Z,53.80
2019-05-17T05:13:25.005Z,53.80
2019-05-17T05:15:56.219Z,53.80
2019-05-17T05:18:27.542Z,53.80
2019-05-17T05:20:58.577Z,53.80
2019-05-17T05:23:31.869Z,53.90
2019-05-17T05:26:03.234Z,53.90
2019-05-17T05:28:34.487Z,54.20
2019-05-17T05:31:05.504Z,54.30
2019-05-17T05:33:36.315Z,54.40
2019-05-17T05:36:07.489Z,54.40
2019-05-17T05:38:38.445Z,54.40
2019-05-17T05:41:12.057Z,54.50
2019-05-17T05:43:42.707Z,54.40
2019-05-17T05:46:13.602Z,54.40
2019-05-17T05:48:44.664Z,54.20
2019-05-17T05:51:18.804Z,54.80
2019-05-17T05:53:52.058Z,55.00
2019-05-17T05:56:22.575Z,62.20
2019-05-17T05:58:53.856Z,60.90
2019-05-17T06:01:24.846Z,67.20
2019-05-17T06:03:56.426Z,65.90
2019-05-17T06:06:28.267Z,64.20
2019-05-17T06:08:59.473Z,61.60
2019-05-17T06:11:32.227Z,59.80
2019-05-17T06:14:03.671Z,58.60
2019-05-17T06:16:35.313Z,57.80
2019-05-17T06:19:06.312Z,56.80
2019-05-17T06:21:37.115Z,56.10
2019-05-17T06:24:08.043Z,56.80
2019-05-17T06:26:38.868Z,56.90
2019-05-17T06:29:11.838Z,56.10
2019-05-17T06:31:43.564Z,56.40
2019-05-17T06:34:14.525Z,56.00
2019-05-17T06:36:45.297Z,55.50
2019-05-17T06:39:16.148Z,54.80
2019-05-17T06:41:46.970Z,54.30
2019-05-17T06:44:18.158Z,54.20
2019-05-17T06:46:51.747Z,54.60
2019-05-17T06:49:22.482Z,53.90
2019-05-17T06:51:53.760Z,53.60
2019-05-17T06:54:24.884Z,53.10
2019-05-17T06:56:55.638Z,53.00
2019-05-17T06:59:26.811Z,52.80
2019-05-17T07:01:59.672Z,52.90
2019-05-17T07:04:30.471Z,52.70
2019-05-17T07:07:20.710Z,52.60
2019-05-17T07:09:51.826Z,52.60
2019-05-17T07:12:23.162Z,52.40
2019-05-17T07:14:54.187Z,52.40
2019-05-17T07:17:24.970Z,52.30
2019-05-17T07:19:55.984Z,52.60
2019-05-17T07:22:26.760Z,52.20
2019-05-17T07:24:59.726Z,52.10
2019-05-17T07:27:41.076Z,52.00
2019-05-17T07:30:02.702Z,51.90
2019-05-17T07:32:33.525Z,51.70
2019-05-17T07:35:04.276Z,51.70
2019-05-17T07:37:35.345Z,51.50
2019-05-17T07:40:06.599Z,51.30
2019-05-17T07:42:39.490Z,51.20
2019-05-17T07:45:10.359Z,51.20
2019-05-17T07:47:41.310Z,51.20
2019-05-17T07:50:11.980Z,50.90
2019-05-17T07:52:43.006Z,50.80
2019-05-17T07:55:14.000Z,50.80
2019-05-17T07:57:44.868Z,51.40
2019-05-17T08:00:15.927Z,51.80
2019-05-17T08:02:46.858Z,52.60
2019-05-17T08:05:17.903Z,52.60
2019-05-17T08:07:49.984Z,52.70
2019-05-17T08:10:21.122Z,52.60
2019-05-17T08:12:51.815Z,52.60
2019-05-17T08:15:22.934Z,52.50
2019-05-17T08:17:53.726Z,52.50
2019-05-17T08:20:25.408Z,52.40
2019-05-17T08:22:56.223Z,52.10
2019-05-17T08:25:27.429Z,52.10
2019-05-17T08:27:59.525Z,52.00
2019-05-17T08:30:30.661Z,51.90
2019-05-17T08:33:01.515Z,51.80
2019-05-17T08:35:32.520Z,51.60
2019-05-17T08:38:03.471Z,51.30
2019-05-17T08:40:34.317Z,51.50
2019-05-17T08:43:04.803Z,51.70
2019-05-17T08:45:36.005Z,51.60
2019-05-17T08:48:09.339Z,51.50
2019-05-17T08:50:40.360Z,51.40
2019-05-17T08:53:11.929Z,51.30
2019-05-17T08:55:42.938Z,51.30
2019-05-17T08:58:13.869Z,51.30
2019-05-17T09:00:45.056Z,51.30
2019-05-17T09:03:16.158Z,51.20
2019-05-17T09:05:46.795Z,51.10
2019-05-17T09:08:17.630Z,51.10
2019-05-17T09:10:50.373Z,51.00
2019-05-17T09:13:21.004Z,51.00
2019-05-17T09:15:52.079Z,50.90
2019-05-17T09:18:22.670Z,50.90
2019-05-17T09:20:53.478Z,50.90
2019-05-17T09:23:24.655Z,50.70
2019-05-17T09:25:55.308Z,50.60
2019-05-17T09:28:26.222Z,50.70
2019-05-17T09:30:59.677Z,50.80
2019-05-17T09:33:30.239Z,50.80
2019-05-17T09:36:01.197Z,51.20
2019-05-17T09:38:31.886Z,50.70
2019-05-17T09:41:02.749Z,50.60
2019-05-17T09:43:33.560Z,50.40
2019-05-17T09:46:04.581Z,50.30
2019-05-17T09:48:35.412Z,50.30
2019-05-17T09:51:06.229Z,50.30
2019-05-17T09:53:37.254Z,50.30
2019-05-17T09:56:09.878Z,50.20
2019-05-17T09:58:40.651Z,50.20
2019-05-17T10:01:11.544Z,50.20
2019-05-17T10:03:42.928Z,50.20
2019-05-17T10:06:13.625Z,50.30
2019-05-17T10:08:44.520Z,50.20
2019-05-17T10:11:15.382Z,50.20
2019-05-17T10:13:46.251Z,50.30
2019-05-17T10:16:17.188Z,50.20
2019-05-17T10:18:48.053Z,50.20
2019-05-17T10:21:19.904Z,50.20
2019-05-17T10:23:51.021Z,50.20
2019-05-17T10:26:22.142Z,50.30
2019-05-17T10:28:53.540Z,50.30
2019-05-17T10:31:24.262Z,50.30
2019-05-17T10:33:58.084Z,50.20
2019-05-17T10:36:29.359Z,50.40
2019-05-17T10:39:00.147Z,50.20
2019-05-17T10:41:31.064Z,50.00
2019-05-17T10:44:01.818Z,50.00
2019-05-17T10:46:32.560Z,49.90
2019-05-17T10:49:03.327Z,49.90
2019-05-17T10:51:34.130Z,49.80
2019-05-17T10:54:05.037Z,49.80
2019-05-17T10:56:35.922Z,49.70
2019-05-17T10:59:06.765Z,49.60
2019-05-17T11:01:37.390Z,49.60
2019-05-17T11:04:10.469Z,49.60
2019-05-17T11:06:40.766Z,49.60
2019-05-17T11:09:11.660Z,49.50
2019-05-17T11:11:42.330Z,49.50
2019-05-17T11:14:13.192Z,49.50
2019-05-17T11:16:44.241Z,49.50
2019-05-17T11:19:15.180Z,49.50
2019-05-17T11:21:45.983Z,49.50
2019-05-17T11:24:17.035Z,49.50
2019-05-17T11:26:48.117Z,49.40
2019-05-17T11:29:18.759Z,49.50
2019-05-17T11:31:49.462Z,49.50
2019-05-17T11:34:20.106Z,49.50
2019-05-17T11:36:50.932Z,49.50
2019-05-17T11:39:22.104Z,49.40
2019-05-17T11:41:53.034Z,49.30
2019-05-17T11:44:24.154Z,49.20
2019-05-17T11:46:55.338Z,49.50
2019-05-17T11:49:26.205Z,51.50
2019-05-17T11:51:57.458Z,50.70
2019-05-17T11:54:29.044Z,50.20
2019-05-17T11:57:00.213Z,51.70
2019-05-17T11:59:31.065Z,50.40
2019-05-17T12:02:01.979Z,49.90
2019-05-17T12:04:33.230Z,49.90
2019-05-17T12:07:04.234Z,50.40
2019-05-17T12:09:37.621Z,49.90
2019-05-17T12:12:08.447Z,49.70
2019-05-17T12:14:39.480Z,49.90
2019-05-17T12:17:10.113Z,49.80
2019-05-17T12:19:41.136Z,50.10
2019-05-17T12:22:12.632Z,50.10
2019-05-17T12:24:43.633Z,50.10
2019-05-17T12:27:14.710Z,50.00
2019-05-17T12:29:45.759Z,50.10
2019-05-17T12:32:17.654Z,49.90
2019-05-17T12:34:59.865Z,49.80
2019-05-17T12:37:30.991Z,49.80
2019-05-17T12:40:02.007Z,49.50
2019-05-17T12:42:33.033Z,49.50
2019-05-17T12:45:04.053Z,49.50
2019-05-17T12:47:35.514Z,49.70
2019-05-17T12:50:06.743Z,49.90
2019-05-17T12:52:37.445Z,49.80
2019-05-17T12:55:09.098Z,49.80
2019-05-17T12:57:42.134Z,49.80
2019-05-17T13:00:13.374Z,49.80
2019-05-17T13:02:45.034Z,49.30
2019-05-17T13:05:15.623Z,50.20
2019-05-17T13:07:46.565Z,50.10
2019-05-17T13:10:17.665Z,50.70
2019-05-17T13:12:48.695Z,50.60
2019-05-17T13:15:20.084Z,50.30
2019-05-17T13:17:50.965Z,50.30
2019-05-17T13:20:22.369Z,50.40
2019-05-17T13:22:53.213Z,50.50
2019-05-17T13:25:24.061Z,50.60
2019-05-17T13:27:57.307Z,50.50
2019-05-17T13:30:28.342Z,50.60
2019-05-17T13:32:59.772Z,50.70
2019-05-17T13:35:30.702Z,50.80
2019-05-17T13:38:01.444Z,50.70
2019-05-17T13:40:39.248Z,50.60
2019-05-17T13:43:04.381Z,50.40
2019-05-17T13:45:35.121Z,50.40
2019-05-17T13:48:06.085Z,50.40
2019-05-17T13:50:37.165Z,50.40
2019-05-17T13:53:08.520Z,50.40
2019-05-17T13:55:39.448Z,50.40
2019-05-17T13:58:10.732Z,50.40
2019-05-17T14:00:41.549Z,50.40
2019-05-17T14:03:12.517Z,50.30
2019-05-17T14:05:43.544Z,50.40
2019-05-17T14:08:14.455Z,50.40
2019-05-17T14:10:46.317Z,50.10
2019-05-17T14:13:17.176Z,50.10
2019-05-17T14:15:47.911Z,50.20
2019-05-17T14:18:18.767Z,50.10
2019-05-17T14:20:49.394Z,50.20
2019-05-17T14:23:20.114Z,50.10
2019-05-17T14:25:51.007Z,50.00
2019-05-17T14:28:21.743Z,49.90
2019-05-17T14:30:52.747Z,49.80
2019-05-17T14:33:23.596Z,49.80
2019-05-17T14:35:54.462Z,49.90
2019-05-17T14:38:25.497Z,50.10
2019-05-17T14:41:11.715Z,50.10
2019-05-17T14:43:31.576Z,50.20
2019-05-17T14:46:01.554Z,50.10
2019-05-17T14:48:32.566Z,50.20
2019-05-17T14:51:03.489Z,50.40
2019-05-17T14:53:36.255Z,50.60
2019-05-17T14:56:07.348Z,50.80
2019-05-17T14:58:39.753Z,51.10
2019-05-17T15:01:12.349Z,51.00
2019-05-17T15:03:43.962Z,51.00
2019-05-17T15:06:17.009Z,51.00
2019-05-17T15:08:50.122Z,50.90
2019-05-17T15:11:20.922Z,50.90
2019-05-17T15:13:52.374Z,51.00
2019-05-17T15:16:23.366Z,50.90
2019-05-17T15:18:54.407Z,50.80
2019-05-17T15:21:25.309Z,50.70
2019-05-17T15:23:55.981Z,51.00
2019-05-17T15:26:27.107Z,51.40
2019-05-17T15:28:58.252Z,51.60
2019-05-17T15:31:28.897Z,51.20
2019-05-17T15:33:59.901Z,51.10
2019-05-17T15:36:31.807Z,51.30
2019-05-17T15:39:02.872Z,51.20
2019-05-17T15:41:33.712Z,51.10
2019-05-17T15:44:04.462Z,50.90
2019-05-17T15:46:35.637Z,50.90
2019-05-17T15:49:06.670Z,50.90
2019-05-17T15:51:37.716Z,50.90
2019-05-17T15:54:08.574Z,51.00
2019-05-17T15:56:39.486Z,51.00
2019-05-17T15:59:10.332Z,51.00
2019-05-17T16:01:40.941Z,51.00
2019-05-17T16:04:11.807Z,51.10
2019-05-17T16:06:42.817Z,51.10
2019-05-17T16:09:13.905Z,51.00
2019-05-17T16:11:45.002Z,50.90
2019-05-17T16:14:17.011Z,50.80
2019-05-17T16:16:50.145Z,50.80
2019-05-17T16:19:21.158Z,50.80
2019-05-17T16:21:52.141Z,50.70
2019-05-17T16:24:23.476Z,50.80
2019-05-17T16:26:55.062Z,50.70
2019-05-17T16:29:27.499Z,50.60
2019-05-17T16:31:58.757Z,51.00
2019-05-17T16:34:31.098Z,50.60
2019-05-17T16:37:02.424Z,50.50
2019-05-17T16:39:34.309Z,50.50
2019-05-17T16:42:06.459Z,50.50
2019-05-17T16:44:37.974Z,50.50
2019-05-17T16:47:09.032Z,50.50
2019-05-17T16:49:39.692Z,50.50
2019-05-17T16:52:10.589Z,50.90
2019-05-17T16:54:41.867Z,50.30
2019-05-17T16:57:12.699Z,50.30
2019-05-17T16:59:43.423Z,50.40
2019-05-17T17:02:14.357Z,50.50
2019-05-17T17:04:45.412Z,50.50
2019-05-17T17:07:16.111Z,50.50
2019-05-17T17:09:47.195Z,50.40
2019-05-17T17:12:18.135Z,50.30
2019-05-17T17:14:49.164Z,50.20
2019-05-17T17:17:19.717Z,50.20
2019-05-17T17:19:50.516Z,50.30
2019-05-17T17:22:21.361Z,50.40
2019-05-17T17:24:52.138Z,50.50
2019-05-17T17:27:23.027Z,50.40
2019-05-17T17:29:54.004Z,50.40
2019-05-17T17:32:24.924Z,50.40
2019-05-17T17:34:55.933Z,50.40
2019-05-17T17:37:27.211Z,50.40
2019-05-17T17:39:58.265Z,50.40
2019-05-17T17:42:29.197Z,50.40
2019-05-17T17:44:59.889Z,50.40
2019-05-17T17:47:30.755Z,50.60
2019-05-17T17:50:01.519Z,50.40
2019-05-17T17:52:34.965Z,50.60
2019-05-17T17:55:05.221Z,50.80
2019-05-17T17:57:36.153Z,50.90
2019-05-17T18:00:07.280Z,50.90
2019-05-17T18:02:38.256Z,50.90
2019-05-17T18:05:09.195Z,50.90
2019-05-17T18:07:40.014Z,50.90
2019-05-17T18:10:10.981Z,50.80
2019-05-17T18:12:42.232Z,51.30
2019-05-17T18:15:13.137Z,50.80
2019-05-17T18:17:44.260Z,50.70
2019-05-17T18:20:15.327Z,50.70
2019-05-17T18:22:46.304Z,50.70
2019-05-17T18:25:17.065Z,50.70
2019-05-17T18:27:48.246Z,50.60
2019-05-17T18:30:19.237Z,50.60
2019-05-17T18:32:51.033Z,50.60
2019-05-17T18:35:22.135Z,50.60
2019-05-17T18:37:52.985Z,50.70
2019-05-17T18:40:23.931Z,50.60
2019-05-17T18:42:54.940Z,50.70
2019-05-17T18:45:25.900Z,50.60
2019-05-17T18:47:56.954Z,50.60
2019-05-17T18:50:28.349Z,51.30
2019-05-17T18:52:59.342Z,51.80
2019-05-17T18:55:30.678Z,52.50
2019-05-17T18:58:01.705Z,53.60
2019-05-17T19:00:32.468Z,53.60
2019-05-17T19:03:03.683Z,53.70
2019-05-17T19:05:34.677Z,54.20
2019-05-17T19:08:05.578Z,54.40
2019-05-17T19:10:36.784Z,54.40
2019-05-17T19:13:07.792Z,55.40
2019-05-17T19:15:38.631Z,54.80
2019-05-17T19:18:09.477Z,55.00
2019-05-17T19:20:40.573Z,54.10
2019-05-17T19:23:11.395Z,53.80
2019-05-17T19:25:42.278Z,53.50
2019-05-17T19:28:13.177Z,53.80
2019-05-17T19:30:44.183Z,53.70
2019-05-17T19:33:15.128Z,54.50
2019-05-17T19:35:46.135Z,55.30
2019-05-17T19:38:17.249Z,54.50
2019-05-17T19:40:48.151Z,54.60
2019-05-17T19:43:19.105Z,54.00
2019-05-17T19:45:50.009Z,53.70
2019-05-17T19:48:20.866Z,53.40
2019-05-17T19:50:51.328Z,53.40
2019-05-17T19:53:22.445Z,53.00
2019-05-17T19:55:53.408Z,53.00
2019-05-17T19:58:24.027Z,53.00
2019-05-17T20:00:54.995Z,53.00
2019-05-17T20:03:25.843Z,52.90
2019-05-17T20:05:56.919Z,53.00
2019-05-17T20:08:27.718Z,54.00
2019-05-17T20:10:58.541Z,53.80
2019-05-17T20:13:29.771Z,56.10
2019-05-17T20:16:00.737Z,57.40
2019-05-17T20:18:31.765Z,55.90
2019-05-17T20:21:02.695Z,55.00
2019-05-17T20:23:33.666Z,54.40
2019-05-17T20:26:04.862Z,54.30
2019-05-17T20:28:35.766Z,54.30
2019-05-17T20:31:06.910Z,53.80
2019-05-17T20:33:38.803Z,53.70
2019-05-17T20:36:11.428Z,53.50
2019-05-17T20:38:43.732Z,53.50
2019-05-17T20:41:15.725Z,53.40
2019-05-17T20:43:47.467Z,53.40
2019-05-17T20:46:19.180Z,53.10
2019-05-17T20:48:50.630Z,52.80
2019-05-17T20:51:21.719Z,52.70
2019-05-17T20:53:53.410Z,52.70
2019-05-17T20:56:32.844Z,52.60
2019-05-17T20:58:58.485Z,52.70
2019-05-17T21:01:30.205Z,52.60
2019-05-17T21:04:01.723Z,52.60
2019-05-17T21:06:33.133Z,52.50
2019-05-17T21:09:05.912Z,52.70
2019-05-17T21:11:37.568Z,52.70
2019-05-17T21:14:09.169Z,53.20
2019-05-17T21:16:42.423Z,52.60
2019-05-17T21:19:14.074Z,52.70
2019-05-17T21:21:45.609Z,52.50
2019-05-17T21:24:17.698Z,52.50
2019-05-17T21:26:50.864Z,52.60
2019-05-17T21:29:23.507Z,52.50
2019-05-17T21:31:55.347Z,52.50
2019-05-17T21:34:27.351Z,52.50
2019-05-17T21:36:59.907Z,52.50
2019-05-17T21:39:32.073Z,52.50
2019-05-17T21:42:03.161Z,52.40
2019-05-17T21:44:33.939Z,52.80
2019-05-17T21:47:05.208Z,52.70
2019-05-17T21:49:36.234Z,53.20
2019-05-17T21:52:07.928Z,52.90
2019-05-17T21:54:39.108Z,53.00
2019-05-17T21:57:10.174Z,52.90
2019-05-17T21:59:41.420Z,53.00
2019-05-17T22:02:13.302Z,53.30
2019-05-17T22:04:44.578Z,53.70
2019-05-17T22:07:15.964Z,53.60
2019-05-17T22:09:47.246Z,53.70
2019-05-17T22:12:18.235Z,53.50
2019-05-17T22:14:49.159Z,53.80
2019-05-17T22:17:20.424Z,53.90
2019-05-17T22:19:51.479Z,53.70
2019-05-17T22:22:22.740Z,53.60
2019-05-17T22:24:53.976Z,53.40
2019-05-17T22:27:25.036Z,53.50
2019-05-17T22:29:56.220Z,53.40
2019-05-17T22:32:27.381Z,53.40
2019-05-17T22:34:58.425Z,53.40
2019-05-17T22:37:29.595Z,53.40
2019-05-17T22:40:01.140Z,53.40
2019-05-17T22:42:32.228Z,53.30
2019-05-17T22:45:03.756Z,53.30
2019-05-17T22:47:34.370Z,53.30
2019-05-17T22:50:05.166Z,53.40
2019-05-17T22:52:35.814Z,53.60
2019-05-17T22:55:06.945Z,53.80
2019-05-17T22:57:40.795Z,53.70
2019-05-17T23:00:11.583Z,53.70
2019-05-17T23:02:42.671Z,53.80
2019-05-17T23:05:13.700Z,53.80
2019-05-17T23:07:44.804Z,53.80
2019-05-17T23:10:15.676Z,53.90
2019-05-17T23:12:46.706Z,53.90
2019-05-17T23:15:17.692Z,53.90
2019-05-17T23:17:48.678Z,53.80
2019-05-17T23:20:19.653Z,53.90
2019-05-17T23:22:50.596Z,53.90
2019-05-17T23:25:21.654Z,53.80
2019-05-17T23:27:52.830Z,53.80
2019-05-17T23:30:23.874Z,53.80
2019-05-17T23:32:54.976Z,53.80
2019-05-17T23:35:25.826Z,53.80
2019-05-17T23:37:57.348Z,53.80
2019-05-17T23:40:28.243Z,53.70
2019-05-17T23:42:59.085Z,53.80
2019-05-17T23:45:29.879Z,53.70
2019-05-17T23:48:00.850Z,53.70
2019-05-17T23:50:31.898Z,53.70
2019-05-17T23:53:02.845Z,53.70
2019-05-17T23:55:33.971Z,53.70
2019-05-17T23:58:05.107Z,53.70
